Adelanto, California
Current Conditions -  °F | °C
As of 12:55 AM on Sunday 23 Nov 2014 (Local Time) from KVCV Reporting Station
Clear Clear  
Wind Chill: 11°   Ceiling: Unl
Heat Index: 11°   Visibility: 10mi
Dew Point:   Wind: 15mph
Humidity: 71%   Direction: 280°W
Pressure: 30.06"   Gusts: 24mph
Location:  34.58°N, 117.41°W
Report Text: KVCV 230855Z AUTO 28013G21KT 10SM CLR 11/06 A3006 RMK AO2
Loading
Personal Weather Stations






























Interactive Weather Map New forecast layout! Learn more

10-Day Weather Forecast

Advertisements
Track Severe Weather on mobile